createdAt,value
2022-08-30T00:01:14.182Z,101709.25
2022-08-30T00:03:46.443Z,101714.97
2022-08-30T00:06:19.682Z,101711.22
2022-08-30T00:08:46.545Z,101723.84
2022-08-30T00:11:16.682Z,101722.50
2022-08-30T00:13:45.723Z,101721.19
2022-08-30T00:16:13.320Z,101731.63
2022-08-30T00:18:41.121Z,101729.97
2022-08-30T00:21:07.878Z,101720.69
2022-08-30T00:23:34.397Z,101721.22
2022-08-30T00:26:02.582Z,101715.78
2022-08-30T00:28:30.208Z,101716.84
2022-08-30T00:30:56.710Z,101715.03
2022-08-30T00:33:23.619Z,101702.75
2022-08-30T00:35:50.525Z,101707.16
2022-08-30T00:38:17.159Z,101706.09
2022-08-30T00:40:45.159Z,101711.59
2022-08-30T00:43:16.700Z,101720.06
2022-08-30T00:45:46.478Z,101709.16
2022-08-30T00:48:13.266Z,101714.88
2022-08-30T00:50:49.109Z,101711.59
2022-08-30T00:53:26.749Z,101718.19
2022-08-30T00:55:55.032Z,101713.84
2022-08-30T00:58:27.637Z,101715.78
2022-08-30T01:00:57.037Z,101702.66
2022-08-30T01:03:24.462Z,101711.69
2022-08-30T01:05:51.831Z,101709.50
2022-08-30T01:08:22.059Z,101724.84
2022-08-30T01:10:50.718Z,101721.28
2022-08-30T01:13:18.051Z,101724.03
2022-08-30T01:15:46.293Z,101719.38
2022-08-30T01:18:14.402Z,101722.09
2022-08-30T01:21:10.311Z,101723.50
2022-08-30T01:23:41.301Z,101724.59
2022-08-30T01:26:10.355Z,101721.59
2022-08-30T01:28:40.491Z,101728.16
2022-08-30T01:31:08.051Z,101727.88
2022-08-30T01:33:38.299Z,101725.41
2022-08-30T01:36:11.299Z,101721.03
2022-08-30T01:38:53.810Z,101716.94
2022-08-30T01:41:31.418Z,101724.06
2022-08-30T01:44:00.762Z,101716.69
2022-08-30T01:46:36.032Z,101722.97
2022-08-30T01:49:06.843Z,101726.25
2022-08-30T01:51:33.572Z,101727.63
2022-08-30T01:54:00.779Z,101717.78
2022-08-30T01:56:29.287Z,101722.97
2022-08-30T01:59:01.811Z,101717.50
2022-08-30T02:01:32.589Z,101716.94
2022-08-30T02:03:59.538Z,101714.75
2022-08-30T02:06:26.680Z,101720.75
2022-08-30T02:08:53.539Z,101715.31
2022-08-30T02:11:19.990Z,101721.56
2022-08-30T02:13:46.822Z,101724.84
2022-08-30T02:16:17.828Z,101724.28
2022-08-30T02:18:45.232Z,101730.00
2022-08-30T02:21:13.332Z,101720.41
2022-08-30T02:23:41.490Z,101720.41
2022-08-30T02:26:08.686Z,101729.19
2022-08-30T02:28:35.617Z,101723.13
2022-08-30T02:31:09.872Z,101726.97
2022-08-30T02:33:36.594Z,101731.06
2022-08-30T02:36:08.846Z,101723.75
2022-08-30T02:38:35.772Z,101731.06
2022-08-30T02:41:02.668Z,101728.84
2022-08-30T02:43:29.174Z,101728.34
2022-08-30T02:45:56.040Z,101735.97
2022-08-30T02:48:22.578Z,101728.03
2022-08-30T02:50:51.917Z,101721.78
2022-08-30T02:53:21.016Z,101730.78
2022-08-30T02:55:48.472Z,101734.91
2022-08-30T02:58:15.557Z,101733.25
2022-08-30T03:00:42.764Z,101716.34
2022-08-30T03:03:09.510Z,101720.50
2022-08-30T03:05:39.778Z,101721.28
2022-08-30T03:08:07.874Z,101722.31
2022-08-30T03:10:34.574Z,101723.44
2022-08-30T03:13:01.286Z,101722.91
2022-08-30T03:15:28.067Z,101721.78
2022-08-30T03:17:55.033Z,101722.91
2022-08-30T03:20:24.495Z,101721.28
2022-08-30T03:22:51.883Z,101722.97
2022-08-30T03:25:20.717Z,101726.75
2022-08-30T03:27:47.846Z,101730.31
2022-08-30T03:30:14.442Z,101730.28
2022-08-30T03:32:43.127Z,101716.91
2022-08-30T03:35:10.528Z,101730.56
2022-08-30T03:37:37.237Z,101723.75
2022-08-30T03:40:09.162Z,101724.03
2022-08-30T03:42:37.868Z,101728.16
2022-08-30T03:45:08.389Z,101730.63
2022-08-30T03:47:34.933Z,101727.88
2022-08-30T03:50:02.067Z,101733.03
2022-08-30T03:52:28.538Z,101728.97
2022-08-30T03:54:56.746Z,101730.59
2022-08-30T03:57:24.548Z,101731.97
2022-08-30T03:59:52.029Z,101728.16
2022-08-30T04:02:19.125Z,101729.78
2022-08-30T04:04:45.646Z,101719.41
2022-08-30T04:07:12.751Z,101719.41
2022-08-30T04:09:39.403Z,101721.88
2022-08-30T04:12:06.027Z,101726.81
2022-08-30T04:14:32.529Z,101724.34
2022-08-30T04:16:59.166Z,101727.06
2022-08-30T04:19:25.656Z,101729.53
2022-08-30T04:21:53.431Z,101733.34
2022-08-30T04:24:19.980Z,101734.72
2022-08-30T04:26:46.690Z,101724.84
2022-08-30T04:29:16.883Z,101735.78
2022-08-30T04:31:44.434Z,101736.34
2022-08-30T04:34:12.854Z,101736.34
2022-08-30T04:36:39.841Z,101744.53
2022-08-30T04:39:06.915Z,101745.13
2022-08-30T04:41:33.988Z,101743.72
2022-08-30T04:44:03.494Z,101742.66
2022-08-30T04:46:30.447Z,101741.53
2022-08-30T04:48:57.006Z,101747.28
2022-08-30T04:51:23.437Z,101740.72
2022-08-30T04:53:49.957Z,101742.91
2022-08-30T04:56:22.150Z,101749.47
2022-08-30T04:58:50.530Z,101750.28
2022-08-30T05:01:23.893Z,101749.22
2022-08-30T05:03:59.524Z,101756.88
2022-08-30T05:06:28.194Z,101759.03
2022-08-30T05:08:55.831Z,101753.59
2022-08-30T05:11:23.312Z,101753.03
2022-08-30T05:13:50.022Z,101770.28
2022-08-30T05:16:18.634Z,101760.69
2022-08-30T05:18:47.726Z,101762.88
2022-08-30T05:21:18.176Z,101771.91
2022-08-30T05:23:46.103Z,101770.78
2022-08-30T05:26:19.310Z,101777.91
2022-08-30T05:28:46.150Z,101769.44
2022-08-30T05:31:16.123Z,101772.44
2022-08-30T05:33:43.768Z,101780.09
2022-08-30T05:36:14.441Z,101781.44
2022-08-30T05:38:41.622Z,101771.63
2022-08-30T05:41:10.866Z,101777.09
2022-08-30T05:43:38.758Z,101783.91
2022-08-30T05:46:08.607Z,101793.19
2022-08-30T05:48:37.046Z,101787.44
2022-08-30T05:51:15.348Z,101794.28
2022-08-30T05:53:42.621Z,101786.91
2022-08-30T05:56:13.721Z,101793.22
2022-08-30T05:58:41.783Z,101790.22
2022-08-30T06:01:24.751Z,101797.03
2022-08-30T06:03:54.692Z,101797.03
2022-08-30T06:06:21.722Z,101800.63
2022-08-30T06:08:49.016Z,101802.25
2022-08-30T06:11:17.798Z,101797.88
2022-08-30T06:13:44.369Z,101793.22
2022-08-30T06:16:16.112Z,101794.59
2022-08-30T06:18:42.969Z,101798.97
2022-08-30T06:21:16.505Z,101797.34
2022-08-30T06:23:44.626Z,101792.94
2022-08-30T06:26:14.193Z,101791.56
2022-08-30T06:28:41.509Z,101792.97
2022-08-30T06:31:10.370Z,101792.09
2022-08-30T06:33:37.054Z,101793.22
2022-08-30T06:36:06.271Z,101792.94
2022-08-30T06:38:32.962Z,101792.38
2022-08-30T06:40:59.455Z,101802.75
2022-08-30T06:43:26.055Z,101800.84
2022-08-30T06:45:53.394Z,101802.75
2022-08-30T06:48:19.966Z,101798.94
2022-08-30T06:50:53.800Z,101813.16
2022-08-30T06:53:20.405Z,101809.59
2022-08-30T06:55:56.253Z,101803.84
2022-08-30T06:58:23.145Z,101801.34
2022-08-30T07:00:49.571Z,101789.56
2022-08-30T07:03:16.200Z,101797.78
2022-08-30T07:05:42.853Z,101798.03
2022-08-30T07:08:09.430Z,101805.41
2022-08-30T07:10:39.336Z,101807.38
2022-08-30T07:13:05.779Z,101803.00
2022-08-30T07:15:38.063Z,101806.06
2022-08-30T07:18:23.625Z,101818.34
2022-08-30T07:20:50.059Z,101806.00
2022-08-30T07:23:16.935Z,101815.03
2022-08-30T07:25:43.717Z,101817.75
2022-08-30T07:28:10.888Z,101821.59
2022-08-30T07:30:38.780Z,101831.72
2022-08-30T07:33:05.373Z,101831.22
2022-08-30T07:35:32.060Z,101829.59
2022-08-30T07:37:59.256Z,101829.03
2022-08-30T07:40:26.582Z,101828.19
2022-08-30T07:42:53.683Z,101835.28
2022-08-30T07:45:20.803Z,101831.75
2022-08-30T07:47:47.310Z,101840.78
2022-08-30T07:50:14.094Z,101830.06
2022-08-30T07:52:40.858Z,101827.25
2022-08-30T07:55:07.913Z,101841.47
2022-08-30T07:57:34.621Z,101834.00
2022-08-30T08:00:04.019Z,101843.59
2022-08-30T08:02:40.610Z,101836.47
2022-08-30T08:05:08.274Z,101834.09
2022-08-30T08:07:35.450Z,101831.38
2022-08-30T08:10:02.813Z,101839.63
2022-08-30T08:12:29.984Z,101844.50
2022-08-30T08:14:56.441Z,101845.53
2022-08-30T08:17:22.900Z,101846.84
2022-08-30T08:19:49.381Z,101857.16
2022-08-30T08:22:23.332Z,101847.50
2022-08-30T08:24:50.154Z,101845.81
2022-08-30T08:27:17.004Z,101853.63
2022-08-30T08:29:45.252Z,101851.91
2022-08-30T08:32:12.177Z,101849.63
2022-08-30T08:34:38.718Z,101853.13
2022-08-30T08:37:05.179Z,101850.88
2022-08-30T08:39:31.969Z,101847.78
2022-08-30T08:42:20.415Z,101844.47
2022-08-30T08:45:13.056Z,101850.59
2022-08-30T08:48:01.473Z,101849.81
2022-08-30T08:50:31.404Z,101847.56
2022-08-30T08:53:46.402Z,101848.25
2022-08-30T08:56:17.346Z,101840.94
2022-08-30T08:58:53.170Z,101848.00
2022-08-30T09:01:23.964Z,101844.09
2022-08-30T09:03:51.877Z,101850.09
2022-08-30T09:06:56.549Z,101846.94
2022-08-30T09:09:42.920Z,101853.41
2022-08-30T09:12:11.647Z,101844.84
2022-08-30T09:14:46.627Z,101839.63
2022-08-30T09:17:16.174Z,101847.41
2022-08-30T09:19:45.710Z,101850.03
2022-08-30T09:22:38.748Z,101839.97
2022-08-30T09:25:13.123Z,101852.75
2022-08-30T09:27:45.596Z,101852.81
2022-08-30T09:30:21.987Z,101854.72
2022-08-30T09:33:02.211Z,101848.88
2022-08-30T09:35:42.296Z,101851.19
2022-08-30T09:38:13.157Z,101850.44
2022-08-30T09:40:53.435Z,101847.84
2022-08-30T09:43:23.475Z,101847.50
2022-08-30T09:46:01.238Z,101844.69
2022-08-30T09:48:40.613Z,101845.06
2022-08-30T09:51:10.208Z,101847.97
2022-08-30T09:54:16.735Z,101849.28
2022-08-30T09:56:49.088Z,101847.91
2022-08-30T09:59:34.273Z,101852.00
2022-08-30T10:02:00.726Z,101842.69
2022-08-30T10:04:44.134Z,101847.81
2022-08-30T10:07:18.199Z,101842.00
2022-08-30T10:10:01.153Z,101845.00
2022-08-30T10:12:59.379Z,101848.38
2022-08-30T10:15:32.358Z,101851.66
2022-08-30T10:18:05.049Z,101853.91
2022-08-30T10:20:47.289Z,101845.22
2022-08-30T10:23:25.004Z,101838.56
2022-08-30T10:26:22.820Z,101838.66
2022-08-30T10:29:00.056Z,101838.97
2022-08-30T10:31:40.466Z,101849.00
2022-08-30T10:34:14.041Z,101841.28
2022-08-30T10:36:46.818Z,101842.00
2022-08-30T10:39:22.119Z,101837.16
2022-08-30T10:42:11.628Z,101842.31
2022-08-30T10:44:45.361Z,101835.19
2022-08-30T10:47:26.949Z,101839.25
2022-08-30T10:50:10.697Z,101841.28
2022-08-30T10:52:52.054Z,101833.19
2022-08-30T10:55:30.107Z,101830.44
2022-08-30T10:58:02.723Z,101830.50
2022-08-30T11:00:39.147Z,101830.09
2022-08-30T11:03:36.247Z,101820.53
2022-08-30T11:06:14.156Z,101813.56
2022-08-30T11:09:08.542Z,101816.38
2022-08-30T11:11:51.884Z,101810.13
2022-08-30T11:14:20.759Z,101810.84
2022-08-30T11:16:54.875Z,101805.72
2022-08-30T11:19:32.364Z,101809.81
2022-08-30T11:22:24.128Z,101805.22
2022-08-30T11:25:14.246Z,101801.66
2022-08-30T11:27:45.820Z,101801.47
2022-08-30T11:30:24.526Z,101795.47
2022-08-30T11:33:23.965Z,101797.28
2022-08-30T11:35:53.670Z,101798.16
2022-08-30T11:38:40.064Z,101798.91
2022-08-30T11:41:11.575Z,101783.53
2022-08-30T11:43:40.174Z,101783.06
2022-08-30T11:46:21.016Z,101782.41
2022-08-30T11:49:08.135Z,101780.94
2022-08-30T11:51:44.071Z,101780.69
2022-08-30T11:54:52.906Z,101769.59
2022-08-30T11:57:30.126Z,101770.41
2022-08-30T12:00:25.825Z,101760.97
2022-08-30T12:02:55.899Z,101768.78
2022-08-30T12:05:48.041Z,101762.59
2022-08-30T12:08:20.512Z,101755.91
2022-08-30T12:10:48.883Z,101753.94
2022-08-30T12:13:34.111Z,101756.41
2022-08-30T12:16:05.155Z,101750.06
2022-08-30T12:18:55.396Z,101747.59
2022-08-30T12:21:22.467Z,101734.84
2022-08-30T12:24:16.280Z,101739.19
2022-08-30T12:26:45.005Z,101736.03
2022-08-30T12:29:26.304Z,101735.63
2022-08-30T12:32:00.366Z,101726.50
2022-08-30T12:34:33.152Z,101726.78
2022-08-30T12:37:08.465Z,101728.72
2022-08-30T12:39:41.861Z,101728.25
2022-08-30T12:42:22.629Z,101725.25
2022-08-30T12:44:51.814Z,101718.75
2022-08-30T12:47:26.711Z,101721.81
2022-08-30T12:49:55.063Z,101711.50
2022-08-30T12:52:38.662Z,101718.72
2022-08-30T12:55:17.393Z,101710.47
2022-08-30T12:58:01.306Z,101705.41
2022-08-30T13:00:41.987Z,101705.28
2022-08-30T13:03:39.221Z,101698.41
2022-08-30T13:06:10.042Z,101699.94
2022-08-30T13:08:51.788Z,101696.72
2022-08-30T13:11:21.277Z,101691.06
2022-08-30T13:13:52.294Z,101689.28
2022-08-30T13:16:22.835Z,101678.41
2022-08-30T13:18:55.512Z,101674.97
2022-08-30T13:21:33.735Z,101676.69
2022-08-30T13:24:04.513Z,101673.91
2022-08-30T13:26:34.010Z,101672.13
2022-08-30T13:29:05.088Z,101673.66
2022-08-30T13:31:37.618Z,101675.50
2022-08-30T13:34:05.055Z,101668.94
2022-08-30T13:36:35.505Z,101658.16
2022-08-30T13:39:03.399Z,101659.69
2022-08-30T13:41:34.449Z,101665.22
2022-08-30T13:44:13.105Z,101652.25
2022-08-30T13:46:44.769Z,101655.41
2022-08-30T13:52:20.508Z,101651.19
2022-08-30T13:54:50.392Z,101653.91
2022-08-30T13:57:53.677Z,101657.81
2022-08-30T14:00:12.525Z,101662.78
2022-08-30T14:02:45.401Z,101655.72
2022-08-30T14:05:31.094Z,101647.38
2022-08-30T14:08:05.138Z,101645.06
2022-08-30T14:10:37.847Z,101648.28
2022-08-30T14:13:12.431Z,101648.03
2022-08-30T14:15:41.566Z,101639.88
2022-08-30T14:18:08.932Z,101634.22
2022-08-30T14:20:38.502Z,101638.66
2022-08-30T14:23:07.611Z,101639.00
2022-08-30T14:25:37.716Z,101637.31
2022-08-30T14:28:07.917Z,101639.59
2022-08-30T14:30:36.674Z,101640.94
2022-08-30T14:33:03.629Z,101636.59
2022-08-30T14:35:30.298Z,101635.72
2022-08-30T14:37:57.280Z,101631.63
2022-08-30T14:40:23.979Z,101630.56
2022-08-30T14:42:50.492Z,101631.66
2022-08-30T14:45:18.281Z,101629.81
2022-08-30T14:47:46.131Z,101633.50
2022-08-30T14:50:14.413Z,101616.47
2022-08-30T14:52:41.261Z,101625.56
2022-08-30T14:55:12.728Z,101635.00
2022-08-30T14:57:39.478Z,101624.38
2022-08-30T15:00:08.981Z,101626.53
2022-08-30T15:02:35.462Z,101623.41
2022-08-30T15:05:04.186Z,101627.06
2022-08-30T15:07:35.338Z,101616.38
2022-08-30T15:10:02.769Z,101618.47
2022-08-30T15:12:29.248Z,101609.19
2022-08-30T15:14:56.145Z,101610.56
2022-08-30T15:17:22.570Z,101615.34
2022-08-30T15:19:49.259Z,101620.56
2022-08-30T15:22:16.461Z,101616.88
2022-08-30T15:24:43.632Z,101612.84
2022-08-30T15:27:15.528Z,101618.72
2022-08-30T15:29:42.235Z,101615.63
2022-08-30T15:32:08.815Z,101607.00
2022-08-30T15:34:35.913Z,101604.22
2022-08-30T15:37:02.564Z,101599.13
2022-08-30T15:39:29.656Z,101604.81
2022-08-30T15:42:00.630Z,101601.56
2022-08-30T15:44:28.417Z,101602.91
2022-08-30T15:46:55.529Z,101606.03
2022-08-30T15:49:23.706Z,101601.53
2022-08-30T15:51:54.405Z,101594.38
2022-08-30T15:54:23.488Z,101597.59
2022-08-30T15:56:51.647Z,101598.81
2022-08-30T15:59:19.315Z,101601.19
2022-08-30T16:01:47.725Z,101597.22
2022-08-30T16:04:17.092Z,101590.94
2022-08-30T16:06:45.457Z,101595.13
2022-08-30T16:09:12.237Z,101596.44
2022-08-30T16:11:38.893Z,101595.09
2022-08-30T16:14:06.751Z,101594.38
2022-08-30T16:16:34.934Z,101585.25
2022-08-30T16:19:02.305Z,101584.66
2022-08-30T16:21:31.354Z,101587.16
2022-08-30T16:24:01.519Z,101588.66
2022-08-30T16:26:29.574Z,101588.88
2022-08-30T16:28:56.499Z,101580.09
2022-08-30T16:31:24.277Z,101583.94
2022-08-30T16:33:53.150Z,101584.16
2022-08-30T16:36:21.772Z,101581.81
2022-08-30T16:38:49.075Z,101578.56
2022-08-30T16:41:21.408Z,101574.19
2022-08-30T16:43:49.410Z,101572.56
2022-08-30T16:46:22.598Z,101578.50
2022-08-30T16:48:49.940Z,101574.44
2022-08-30T16:51:19.593Z,101569.09
2022-08-30T16:53:46.721Z,101566.41
2022-08-30T16:56:21.256Z,101567.16
2022-08-30T16:58:48.793Z,101568.19
2022-08-30T17:01:18.952Z,101558.97
2022-08-30T17:03:49.612Z,101571.66
2022-08-30T17:06:17.542Z,101570.88
2022-08-30T17:08:47.131Z,101573.16
2022-08-30T17:11:14.637Z,101574.28
2022-08-30T17:13:42.209Z,101570.56
2022-08-30T17:16:11.440Z,101567.50
2022-08-30T17:18:38.299Z,101567.81
2022-08-30T17:21:05.462Z,101573.97
2022-08-30T17:23:34.869Z,101578.09
2022-08-30T17:26:02.753Z,101586.03
2022-08-30T17:28:29.305Z,101583.31
2022-08-30T17:30:56.338Z,101580.72
2022-08-30T17:33:23.111Z,101577.00
2022-08-30T17:35:50.109Z,101588.53
2022-08-30T17:38:17.206Z,101592.91
2022-08-30T17:40:43.954Z,101594.16
2022-08-30T17:43:10.874Z,101601.34
2022-08-30T17:45:37.656Z,101598.72
2022-08-30T17:48:06.974Z,101601.28
2022-08-30T17:50:36.731Z,101601.44
2022-08-30T17:53:03.774Z,101606.16
2022-08-30T17:55:30.852Z,101614.06
2022-08-30T17:57:57.465Z,101627.75
2022-08-30T18:00:28.834Z,101630.78
2022-08-30T18:02:56.288Z,101632.72
2022-08-30T18:05:24.583Z,101630.88
2022-08-30T18:07:51.852Z,101640.06
2022-08-30T18:10:18.686Z,101635.38
2022-08-30T18:12:45.179Z,101648.22
2022-08-30T18:15:12.811Z,101650.41
2022-08-30T18:17:44.458Z,101657.41
2022-08-30T18:20:11.574Z,101656.50
2022-08-30T18:22:38.099Z,101652.88
2022-08-30T18:25:05.896Z,101646.16
2022-08-30T18:27:32.407Z,101648.38
2022-08-30T18:29:59.238Z,101656.22
2022-08-30T18:32:35.923Z,101659.41
2022-08-30T18:35:05.592Z,101663.53
2022-08-30T18:37:32.347Z,101667.22
2022-08-30T18:39:59.483Z,101664.91
2022-08-30T18:42:27.609Z,101669.13
2022-08-30T18:44:54.267Z,101679.63
2022-08-30T18:47:23.153Z,101681.56
2022-08-30T18:49:50.295Z,101685.06
2022-08-30T18:52:17.084Z,101679.56
2022-08-30T18:54:52.602Z,101678.66
2022-08-30T18:57:20.773Z,101690.81
2022-08-30T18:59:48.725Z,101686.34
2022-08-30T19:02:17.494Z,101693.25
2022-08-30T19:04:45.452Z,101692.16
2022-08-30T19:07:15.242Z,101692.94
2022-08-30T19:09:42.590Z,101691.34
2022-08-30T19:12:11.611Z,101693.25
2022-08-30T19:14:38.985Z,101694.91
2022-08-30T19:17:07.243Z,101693.09
2022-08-30T19:19:35.251Z,101695.22
2022-08-30T19:22:12.303Z,101694.59
2022-08-30T19:24:38.979Z,101691.75
2022-08-30T19:27:05.533Z,101700.13
2022-08-30T19:29:32.045Z,101699.00
2022-08-30T19:31:58.526Z,101701.41
2022-08-30T19:34:25.157Z,101705.91
2022-08-30T19:36:52.313Z,101702.13
2022-08-30T19:39:19.358Z,101710.97
2022-08-30T19:41:46.821Z,101713.31
2022-08-30T19:44:13.665Z,101712.31
2022-08-30T19:46:40.201Z,101722.06
2022-08-30T19:49:10.191Z,101717.13
2022-08-30T19:51:38.810Z,101715.72
2022-08-30T19:54:14.646Z,101716.00
2022-08-30T19:56:41.277Z,101717.72
2022-08-30T19:59:07.738Z,101721.31
2022-08-30T20:01:34.554Z,101724.97
2022-08-30T20:04:03.326Z,101729.41
2022-08-30T20:06:30.807Z,101733.38
2022-08-30T20:08:59.808Z,101732.50
2022-08-30T20:11:28.035Z,101735.25
2022-08-30T20:13:55.128Z,101737.53
2022-08-30T20:16:33.037Z,101731.59
2022-08-30T20:19:05.545Z,101731.19
2022-08-30T20:21:32.657Z,101730.41
2022-08-30T20:24:00.732Z,101730.63
2022-08-30T20:26:33.612Z,101741.50
2022-08-30T20:29:02.468Z,101743.22
2022-08-30T20:31:29.271Z,101744.53
2022-08-30T20:33:55.831Z,101748.50
2022-08-30T20:36:22.277Z,101743.72
2022-08-30T20:38:48.952Z,101749.75
2022-08-30T20:41:17.182Z,101746.84
2022-08-30T20:43:45.183Z,101752.41
2022-08-30T20:46:20.131Z,101742.00
2022-08-30T20:48:47.698Z,101750.03
2022-08-30T20:51:17.863Z,101753.31
2022-08-30T20:53:45.437Z,101750.13
2022-08-30T20:56:13.713Z,101753.38
2022-08-30T20:58:40.217Z,101761.75
2022-08-30T21:01:09.519Z,101762.34
2022-08-30T21:03:36.643Z,101755.13
2022-08-30T21:06:03.375Z,101759.16
2022-08-30T21:08:30.431Z,101759.09
2022-08-30T21:10:57.009Z,101763.50
2022-08-30T21:13:23.554Z,101765.84
2022-08-30T21:15:54.774Z,101761.50
2022-08-30T21:18:22.995Z,101768.13
2022-08-30T21:20:49.440Z,101772.50
2022-08-30T21:23:17.119Z,101771.81
2022-08-30T21:25:44.094Z,101777.03
2022-08-30T21:28:10.798Z,101773.44
2022-08-30T21:30:37.874Z,101778.69
2022-08-30T21:33:07.185Z,101780.88
2022-08-30T21:35:53.230Z,101777.88
2022-08-30T21:38:20.006Z,101784.81
2022-08-30T21:40:48.485Z,101785.94
2022-08-30T21:43:16.071Z,101781.56
2022-08-30T21:45:43.770Z,101784.31
2022-08-30T21:48:11.658Z,101796.53
2022-08-30T21:50:40.591Z,101795.41
2022-08-30T21:53:07.228Z,101793.41
2022-08-30T21:55:33.711Z,101793.13
2022-08-30T21:58:00.269Z,101796.78
2022-08-30T22:00:27.906Z,101796.78
2022-08-30T22:02:54.594Z,101805.91
2022-08-30T22:05:21.179Z,101799.81
2022-08-30T22:07:47.779Z,101797.38
2022-08-30T22:10:14.847Z,101808.69
2022-08-30T22:12:41.687Z,101802.13
2022-08-30T22:15:09.120Z,101807.00
2022-08-30T22:17:35.674Z,101803.78
2022-08-30T22:20:02.623Z,101818.94
2022-08-30T22:22:29.134Z,101819.44
2022-08-30T22:24:56.280Z,101818.13
2022-08-30T22:27:22.764Z,101818.31
2022-08-30T22:29:49.406Z,101809.03
2022-08-30T22:32:17.486Z,101814.00
2022-08-30T22:34:45.992Z,101816.00
2022-08-30T22:37:12.862Z,101817.31
2022-08-30T22:39:39.396Z,101811.31
2022-08-30T22:42:06.164Z,101812.69
2022-08-30T22:44:32.752Z,101805.03
2022-08-30T22:47:02.570Z,101806.69
2022-08-30T22:49:29.051Z,101816.66
2022-08-30T22:51:55.581Z,101807.53
2022-08-30T22:54:22.019Z,101811.13
2022-08-30T22:56:49.869Z,101813.59
2022-08-30T22:59:16.654Z,101808.94
2022-08-30T23:01:43.327Z,101804.03
2022-08-30T23:04:11.644Z,101810.69
2022-08-30T23:06:38.717Z,101807.38
2022-08-30T23:09:06.664Z,101806.31
2022-08-30T23:11:34.218Z,101817.38
2022-08-30T23:14:03.566Z,101813.47
2022-08-30T23:16:30.892Z,101814.34
2022-08-30T23:18:57.684Z,101816.53
2022-08-30T23:21:27.691Z,101820.66
2022-08-30T23:24:15.491Z,101820.09
2022-08-30T23:27:03.112Z,101821.69
2022-08-30T23:29:48.364Z,101828.88
2022-08-30T23:32:35.564Z,101828.41
2022-08-30T23:35:20.772Z,101832.25
2022-08-30T23:38:13.039Z,101831.72
2022-08-30T23:40:58.212Z,101825.97
2022-08-30T23:43:43.847Z,101825.72
2022-08-30T23:46:28.628Z,101824.56
2022-08-30T23:49:16.622Z,101823.75
2022-08-30T23:52:01.961Z,101826.47
2022-08-30T23:54:47.108Z,101830.34
2022-08-30T23:57:33.093Z,101826.53
